Time;durP1;ratioP1;P1;durP2;ratioP2;P2;SDS_P1;SDS_P2;PMS_P1;PMS_P2;Temp;Humidity;BMP_temperature;BMP_pressure;BME280_temperature;BME280_humidity;BME280_pressure;Samples;Min_cycle;Max_cycle;Signal;HPM_P1;HPM_P2
2023/07/16 00:00:18;;;;;;;2.00;0.83;;;;;;;;;;5036179;28;20170;-80
2023/07/16 00:02:44;;;;;;;1.70;0.40;;;;;;;;;;5036214;28;20413;-80
2023/07/16 00:05:12;;;;;;;4.03;0.60;;;;;;;;;;5036097;28;20418;-79
2023/07/16 00:07:38;;;;;;;2.43;0.30;;;;;;;;;;5035742;28;20172;-81
2023/07/16 00:10:04;;;;;;;1.50;1.07;;;;;;;;;;5035959;28;20425;-81
2023/07/16 00:12:30;;;;;;;1.97;0.40;;;;;;;;;;5035998;28;20237;-80
2023/07/16 00:14:57;;;;;;;1.20;0.47;;;;;;;;;;5019585;28;20512;-79
2023/07/16 00:17:23;;;;;;;1.80;0.50;;;;;;;;;;5045142;28;20315;-79
2023/07/16 00:19:49;;;;;;;2.00;0.33;;;;;;;;;;5035888;28;20932;-78
2023/07/16 00:22:14;;;;;;;1.53;0.60;;;;;;;;;;5017669;28;20505;-79
2023/07/16 00:24:40;;;;;;;1.70;0.40;;;;;;;;;;5035731;28;20179;-81
2023/07/16 00:27:06;;;;;;;2.50;0.20;;;;;;;;;;5035658;28;20629;-80
2023/07/16 00:29:32;;;;;;;2.70;0.63;;;;;;;;;;5035745;28;20198;-80
2023/07/16 00:31:58;;;;;;;2.13;0.53;;;;;;;;;;5035620;28;20265;-79
2023/07/16 00:34:24;;;;;;;3.60;0.40;;;;;;;;;;5035548;28;20221;-79
2023/07/16 00:36:53;;;;;;;2.47;0.40;;;;;;;;;;5035402;28;20428;-79
2023/07/16 00:39:18;;;;;;;2.27;0.60;;;;;;;;;;5035124;28;20416;-80
2023/07/16 00:41:45;;;;;;;3.30;0.80;;;;;;;;;;5035434;28;20935;-80
2023/07/16 00:44:10;;;;;;;1.97;0.60;;;;;;;;;;5017740;28;20205;-78
2023/07/16 00:46:36;;;;;;;2.80;0.73;;;;;;;;;;5023433;28;20442;-80
2023/07/16 00:49:03;;;;;;;2.00;0.57;;;;;;;;;;5055027;28;20764;-78
2023/07/16 00:51:30;;;;;;;1.90;0.37;;;;;;;;;;5055150;28;20454;-79
2023/07/16 00:53:56;;;;;;;2.17;0.57;;;;;;;;;;5054113;28;20495;-78
2023/07/16 00:56:22;;;;;;;1.70;0.30;;;;;;;;;;5055156;28;20519;-78
2023/07/16 00:58:47;;;;;;;1.30;0.50;;;;;;;;;;5055214;28;20401;-78
2023/07/16 01:01:13;;;;;;;1.90;0.30;;;;;;;;;;5052021;28;20500;-78
2023/07/16 01:03:40;;;;;;;1.23;0.30;;;;;;;;;;5042020;28;20185;-78
2023/07/16 01:06:16;;;;;;;4.43;0.83;;;;;;;;;;5040036;28;20931;-78
2023/07/16 01:09:08;;;;;;;0.97;0.33;;;;;;;;;;5034638;28;20767;-78
2023/07/16 01:11:35;;;;;;;2.17;0.53;;;;;;;;;;5031321;28;20418;-77
2023/07/16 01:14:02;;;;;;;3.50;0.40;;;;;;;;;;5034690;28;20428;-77
2023/07/16 01:16:37;;;;;;;1.60;0.60;;;;;;;;;;5054521;28;20414;-77
2023/07/16 01:19:03;;;;;;;2.30;0.67;;;;;;;;;;5054019;28;20473;-77
2023/07/16 01:21:35;;;;;;;1.20;0.47;;;;;;;;;;5054117;28;20412;-78
2023/07/16 01:24:21;;;;;;;0.83;0.40;;;;;;;;;;5053868;28;20416;-78
2023/07/16 01:26:56;;;;;;;1.33;0.43;;;;;;;;;;5054055;28;20438;-78
2023/07/16 01:29:29;;;;;;;1.20;0.40;;;;;;;;;;5054218;28;20493;-78
2023/07/16 01:31:56;;;;;;;1.13;0.40;;;;;;;;;;5053790;28;20467;-77
2023/07/16 01:34:22;;;;;;;3.03;0.30;;;;;;;;;;5054083;28;20459;-78
2023/07/16 01:36:49;;;;;;;2.03;0.47;;;;;;;;;;5054091;28;20521;-78
2023/07/16 01:39:15;;;;;;;1.70;0.53;;;;;;;;;;5035823;28;20492;-79
2023/07/16 01:41:41;;;;;;;1.63;0.93;;;;;;;;;;5053998;28;20456;-77
2023/07/16 01:44:07;;;;;;;2.23;0.37;;;;;;;;;;5053571;28;20825;-78
2023/07/16 01:46:36;;;;;;;1.90;0.60;;;;;;;;;;5053800;28;20174;-78
2023/07/16 01:49:02;;;;;;;2.20;0.67;;;;;;;;;;5053865;28;20406;-78
2023/07/16 01:51:28;;;;;;;4.10;0.67;;;;;;;;;;5053815;28;20919;-78
2023/07/16 01:53:54;;;;;;;2.00;0.47;;;;;;;;;;5053305;28;20477;-78
2023/07/16 01:56:20;;;;;;;4.40;0.20;;;;;;;;;;5053711;28;20421;-78
2023/07/16 01:58:49;;;;;;;1.37;0.50;;;;;;;;;;5053708;28;20404;-77
2023/07/16 02:01:14;;;;;;;1.50;0.73;;;;;;;;;;5053277;28;20443;-77
2023/07/16 02:03:40;;;;;;;1.67;0.40;;;;;;;;;;5053665;28;20901;-78
2023/07/16 02:06:06;;;;;;;1.60;0.40;;;;;;;;;;5052526;28;20173;-78
2023/07/16 02:08:32;;;;;;;2.97;0.90;;;;;;;;;;5052891;28;20587;-78
2023/07/16 02:10:58;;;;;;;1.30;0.40;;;;;;;;;;5053330;28;20453;-78
2023/07/16 02:13:24;;;;;;;6.00;0.53;;;;;;;;;;5053737;28;20592;-78
2023/07/16 02:15:50;;;;;;;2.37;0.50;;;;;;;;;;5053416;28;20205;-78
2023/07/16 02:18:16;;;;;;;1.40;0.40;;;;;;;;;;5052350;28;20221;-78
2023/07/16 02:20:42;;;;;;;1.20;0.40;;;;;;;;;;5053649;28;20177;-78
2023/07/16 02:23:07;;;;;;;2.10;0.67;;;;;;;;;;5053206;28;20178;-78
2023/07/16 02:25:33;;;;;;;1.17;0.50;;;;;;;;;;5035556;28;20177;-79
2023/07/16 02:27:59;;;;;;;2.13;0.37;;;;;;;;;;5034997;28;20201;-78
2023/07/16 02:30:25;;;;;;;1.73;0.60;;;;;;;;;;5035220;28;20970;-79
2023/07/16 02:32:51;;;;;;;2.10;0.60;;;;;;;;;;5051475;28;20174;-78
2023/07/16 02:35:17;;;;;;;3.27;0.90;;;;;;;;;;5035433;28;20467;-79
2023/07/16 02:37:43;;;;;;;2.43;0.97;;;;;;;;;;5035159;28;20624;-78
2023/07/16 02:40:09;;;;;;;1.57;0.60;;;;;;;;;;5053236;28;20477;-78
2023/07/16 02:42:35;;;;;;;3.77;0.83;;;;;;;;;;5053211;28;20510;-79
2023/07/16 02:45:01;;;;;;;2.20;0.60;;;;;;;;;;5053176;28;20431;-79
2023/07/16 02:47:27;;;;;;;3.07;0.70;;;;;;;;;;5053199;28;20526;-78
2023/07/16 02:49:53;;;;;;;1.53;0.57;;;;;;;;;;5053169;28;20416;-78
2023/07/16 02:52:19;;;;;;;6.17;0.73;;;;;;;;;;5052704;28;20411;-79
2023/07/16 02:54:45;;;;;;;2.40;0.60;;;;;;;;;;5053037;28;20282;-78
2023/07/16 02:57:11;;;;;;;3.13;1.37;;;;;;;;;;5053066;28;20494;-78
2023/07/16 02:59:37;;;;;;;2.60;0.50;;;;;;;;;;5053005;28;20980;-79
2023/07/16 03:02:03;;;;;;;1.27;0.63;;;;;;;;;;5053038;28;20400;-78
2023/07/16 03:04:28;;;;;;;2.10;0.83;;;;;;;;;;5053013;28;20173;-78
2023/07/16 03:06:54;;;;;;;2.80;0.70;;;;;;;;;;5052624;28;20407;-78
2023/07/16 03:09:20;;;;;;;1.13;0.40;;;;;;;;;;5035035;28;20204;-79
2023/07/16 03:11:46;;;;;;;2.30;0.40;;;;;;;;;;5052788;28;20184;-79
2023/07/16 03:14:12;;;;;;;2.27;0.53;;;;;;;;;;5052813;28;20306;-78
2023/07/16 03:16:38;;;;;;;2.17;0.60;;;;;;;;;;5052533;28;20186;-79
2023/07/16 03:19:04;;;;;;;2.20;1.17;;;;;;;;;;5052719;28;20460;-79
2023/07/16 03:21:30;;;;;;;2.43;0.90;;;;;;;;;;5052800;28;20177;-79
2023/07/16 03:23:56;;;;;;;2.73;0.70;;;;;;;;;;5052394;28;20184;-79
2023/07/16 03:26:22;;;;;;;2.03;0.80;;;;;;;;;;5052705;28;20412;-79
2023/07/16 03:28:48;;;;;;;0.90;0.40;;;;;;;;;;5052749;28;20182;-79
2023/07/16 03:31:13;;;;;;;3.33;1.00;;;;;;;;;;5052637;28;20179;-80
2023/07/16 03:33:39;;;;;;;2.97;0.60;;;;;;;;;;5052737;28;20404;-79
2023/07/16 03:36:06;;;;;;;5.00;1.37;;;;;;;;;;5052549;28;20583;-78
2023/07/16 03:38:35;;;;;;;2.17;0.60;;;;;;;;;;5052299;28;20639;-79
2023/07/16 03:41:01;;;;;;;1.53;0.47;;;;;;;;;;5052615;28;20423;-78
2023/07/16 03:43:26;;;;;;;3.17;0.70;;;;;;;;;;5034771;28;20416;-79
2023/07/16 03:45:52;;;;;;;3.37;0.60;;;;;;;;;;5052609;28;20695;-79
2023/07/16 03:48:19;;;;;;;2.23;0.70;;;;;;;;;;5052512;28;20732;-78
2023/07/16 03:50:45;;;;;;;2.10;0.80;;;;;;;;;;5052606;28;20202;-79
2023/07/16 03:53:10;;;;;;;2.30;0.93;;;;;;;;;;5052130;28;20514;-78
2023/07/16 03:55:36;;;;;;;1.80;0.40;;;;;;;;;;5052216;28;20475;-78
2023/07/16 03:58:02;;;;;;;2.83;0.57;;;;;;;;;;5034662;28;20222;-79
2023/07/16 04:00:31;;;;;;;3.93;1.07;;;;;;;;;;5052436;28;20423;-77
2023/07/16 04:02:57;;;;;;;1.30;0.60;;;;;;;;;;5052444;28;20227;-79
2023/07/16 04:05:23;;;;;;;3.08;0.63;;;;;;;;;;5033783;28;20501;-78
2023/07/16 04:07:49;;;;;;;2.07;0.90;;;;;;;;;;5052047;28;20919;-80
2023/07/16 04:10:15;;;;;;;1.63;0.57;;;;;;;;;;5052367;28;20613;-77
2023/07/16 04:12:41;;;;;;;2.53;0.67;;;;;;;;;;5052317;28;20261;-78
2023/07/16 04:15:09;;;;;;;1.47;0.70;;;;;;;;;;5052275;28;20296;-79
2023/07/16 04:17:35;;;;;;;1.30;0.30;;;;;;;;;;5052132;28;20223;-78
2023/07/16 04:20:01;;;;;;;1.30;0.70;;;;;;;;;;5052262;28;20423;-77
2023/07/16 04:22:27;;;;;;;1.50;0.50;;;;;;;;;;5051917;28;20463;-80
2023/07/16 04:24:53;;;;;;;4.93;0.90;;;;;;;;;;5052286;28;20173;-79
2023/07/16 04:27:18;;;;;;;1.40;0.50;;;;;;;;;;5052198;28;20931;-79
2023/07/16 04:29:44;;;;;;;2.17;0.80;;;;;;;;;;5037640;28;20181;-79
2023/07/16 04:32:10;;;;;;;1.90;0.60;;;;;;;;;;5037878;28;20514;-79
2023/07/16 04:34:36;;;;;;;2.80;0.80;;;;;;;;;;5037637;28;20292;-79
2023/07/16 04:37:05;;;;;;;2.33;0.50;;;;;;;;;;5055342;28;20424;-78
2023/07/16 04:39:31;;;;;;;3.37;0.70;;;;;;;;;;5055646;28;20400;-79
2023/07/16 04:41:57;;;;;;;2.43;0.80;;;;;;;;;;5055553;28;20423;-79
2023/07/16 04:44:23;;;;;;;3.40;0.83;;;;;;;;;;5059813;28;20507;-79
2023/07/16 04:46:48;;;;;;;3.23;0.70;;;;;;;;;;5055393;28;20622;-78
2023/07/16 04:49:14;;;;;;;2.47;0.60;;;;;;;;;;5055406;28;20920;-79
2023/07/16 04:51:40;;;;;;;2.23;0.57;;;;;;;;;;5055120;28;20433;-78
2023/07/16 04:54:06;;;;;;;1.87;0.93;;;;;;;;;;5055140;28;20414;-79
2023/07/16 04:56:32;;;;;;;3.20;0.67;;;;;;;;;;5055261;28;20642;-79
2023/07/16 04:59:01;;;;;;;2.00;0.70;;;;;;;;;;5055264;28;20253;-77
2023/07/16 05:01:27;;;;;;;2.40;0.67;;;;;;;;;;5037273;28;20235;-78
2023/07/16 05:03:53;;;;;;;2.23;0.60;;;;;;;;;;5037252;28;20822;-78
2023/07/16 05:06:19;;;;;;;3.10;0.70;;;;;;;;;;5054690;28;20418;-79
2023/07/16 05:08:44;;;;;;;1.87;0.50;;;;;;;;;;5055008;28;20924;-78
2023/07/16 05:11:10;;;;;;;5.63;0.90;;;;;;;;;;5054992;28;20173;-79
2023/07/16 05:13:36;;;;;;;2.00;0.77;;;;;;;;;;5054870;28;20578;-80
2023/07/16 05:16:02;;;;;;;1.30;0.33;;;;;;;;;;5054789;28;20495;-78
2023/07/16 05:18:28;;;;;;;2.77;0.43;;;;;;;;;;5036756;28;20219;-78
2023/07/16 05:20:54;;;;;;;4.77;0.90;;;;;;;;;;5054763;28;20231;-79
2023/07/16 05:23:20;;;;;;;2.97;0.87;;;;;;;;;;5036590;28;20836;-78
2023/07/16 05:25:47;;;;;;;2.60;0.50;;;;;;;;;;5054737;28;20916;-78
2023/07/16 05:28:13;;;;;;;2.60;0.60;;;;;;;;;;5036263;28;20490;-79
2023/07/16 05:30:39;;;;;;;3.57;1.00;;;;;;;;;;5054652;28;20416;-79
2023/07/16 05:33:05;;;;;;;2.73;0.80;;;;;;;;;;5054541;28;20469;-81
2023/07/16 05:35:31;;;;;;;3.83;0.83;;;;;;;;;;5054428;28;20216;-79
2023/07/16 05:37:57;;;;;;;1.40;0.53;;;;;;;;;;5054233;28;20557;-79
2023/07/16 05:40:23;;;;;;;2.20;0.63;;;;;;;;;;5054362;28;20174;-81
2023/07/16 05:42:48;;;;;;;3.37;0.90;;;;;;;;;;5054449;28;20177;-78
2023/07/16 05:45:14;;;;;;;3.00;1.30;;;;;;;;;;5054367;28;20503;-78
2023/07/16 05:47:40;;;;;;;3.33;0.77;;;;;;;;;;5036409;28;20169;-78
2023/07/16 05:50:07;;;;;;;3.47;1.00;;;;;;;;;;5036464;28;20429;-78
2023/07/16 05:52:33;;;;;;;2.03;0.60;;;;;;;;;;5053848;28;20448;-78
2023/07/16 05:54:58;;;;;;;2.00;0.40;;;;;;;;;;5036197;28;20495;-78
2023/07/16 05:57:24;;;;;;;2.17;0.87;;;;;;;;;;5054161;28;20798;-78
2023/07/16 05:59:50;;;;;;;2.87;0.70;;;;;;;;;;5054051;28;20173;-79
2023/07/16 06:02:16;;;;;;;3.10;0.73;;;;;;;;;;5053921;28;20563;-79
2023/07/16 06:04:42;;;;;;;2.30;0.90;;;;;;;;;;5053921;28;20410;-77
2023/07/16 06:07:08;;;;;;;3.10;0.60;;;;;;;;;;5035645;28;20428;-78
2023/07/16 06:09:34;;;;;;;3.50;0.80;;;;;;;;;;5053911;28;20171;-79
2023/07/16 06:12:00;;;;;;;2.10;0.53;;;;;;;;;;5053755;28;20171;-79
2023/07/16 06:14:26;;;;;;;2.27;0.70;;;;;;;;;;5053735;28;20459;-81
2023/07/16 06:16:52;;;;;;;1.30;0.90;;;;;;;;;;5053602;28;20588;-83
2023/07/16 06:19:18;;;;;;;2.83;0.93;;;;;;;;;;5035883;28;20612;-80
2023/07/16 06:21:44;;;;;;;4.57;0.93;;;;;;;;;;5053257;28;20446;-84
2023/07/16 06:24:10;;;;;;;9.80;1.03;;;;;;;;;;5053594;28;20179;-84
2023/07/16 06:26:36;;;;;;;4.13;0.77;;;;;;;;;;5053760;28;20181;-84
2023/07/16 06:29:02;;;;;;;2.70;0.80;;;;;;;;;;5052068;28;20414;-87
2023/07/16 06:31:28;;;;;;;2.40;0.73;;;;;;;;;;5048149;28;20481;-89
2023/07/16 06:33:54;;;;;;;4.00;0.90;;;;;;;;;;5053326;28;20833;-86
2023/07/16 06:36:20;;;;;;;1.93;1.40;;;;;;;;;;5052689;28;20293;-84
2023/07/16 06:38:46;;;;;;;3.57;0.63;;;;;;;;;;5050545;28;20171;-87
2023/07/16 06:41:15;;;;;;;2.20;0.93;;;;;;;;;;5052917;28;20426;-84
2023/07/16 06:43:41;;;;;;;2.23;0.87;;;;;;;;;;5034899;28;20938;-85
2023/07/16 06:46:07;;;;;;;2.63;0.93;;;;;;;;;;5050056;28;20499;-81
2023/07/16 06:48:34;;;;;;;3.50;1.23;;;;;;;;;;5052604;28;20180;-81
2023/07/16 06:51:00;;;;;;;2.80;1.00;;;;;;;;;;5051885;28;20540;-81
2023/07/16 06:53:26;;;;;;;2.80;1.03;;;;;;;;;;5052547;28;20534;-80
2023/07/16 06:55:52;;;;;;;6.33;0.80;;;;;;;;;;5034740;28;20566;-80
2023/07/16 06:58:18;;;;;;;3.67;0.30;;;;;;;;;;5052630;28;20630;-80
2023/07/16 07:00:44;;;;;;;2.87;0.80;;;;;;;;;;5052422;28;20440;-79
2023/07/16 07:03:09;;;;;;;2.30;0.60;;;;;;;;;;5052367;28;20629;-80
2023/07/16 07:05:36;;;;;;;4.80;1.10;;;;;;;;;;5052450;28;20418;-80
2023/07/16 07:08:02;;;;;;;3.00;0.53;;;;;;;;;;5052003;28;20655;-82
2023/07/16 07:10:28;;;;;;;3.67;1.00;;;;;;;;;;5052569;28;20404;-81
2023/07/16 07:12:54;;;;;;;2.73;0.57;;;;;;;;;;5052354;28;20909;-80
2023/07/16 07:15:20;;;;;;;3.30;1.20;;;;;;;;;;5052163;28;20243;-80
2023/07/16 07:17:46;;;;;;;3.17;0.90;;;;;;;;;;5049439;28;20241;-80
2023/07/16 07:20:13;;;;;;;2.87;1.00;;;;;;;;;;5052307;28;20580;-80
2023/07/16 07:22:39;;;;;;;3.57;0.70;;;;;;;;;;5051974;28;20652;-82
2023/07/16 07:25:05;;;;;;;3.37;1.30;;;;;;;;;;5052166;28;20424;-81
2023/07/16 07:27:31;;;;;;;6.10;1.90;;;;;;;;;;5052145;28;20890;-81
2023/07/16 07:29:56;;;;;;;4.20;1.20;;;;;;;;;;5052029;28;20427;-80
2023/07/16 07:32:23;;;;;;;6.40;1.27;;;;;;;;;;5052132;28;20166;-79
2023/07/16 07:34:49;;;;;;;6.00;1.53;;;;;;;;;;5052081;28;20202;-80
2023/07/16 07:37:15;;;;;;;3.63;1.30;;;;;;;;;;5051918;28;20427;-80
2023/07/16 07:39:41;;;;;;;2.53;1.03;;;;;;;;;;5052282;28;20412;-81
2023/07/16 07:42:07;;;;;;;1.53;0.60;;;;;;;;;;5052306;28;20205;-81
2023/07/16 07:44:33;;;;;;;2.57;0.80;;;;;;;;;;5052689;28;20465;-81
2023/07/16 07:46:59;;;;;;;2.70;0.90;;;;;;;;;;5052486;28;20416;-80
2023/07/16 07:49:25;;;;;;;3.27;1.10;;;;;;;;;;5052605;28;20178;-80
2023/07/16 07:51:51;;;;;;;4.67;1.20;;;;;;;;;;5052113;28;20587;-81
2023/07/16 07:54:17;;;;;;;3.87;1.07;;;;;;;;;;5052303;28;20174;-79
2023/07/16 07:56:43;;;;;;;2.43;0.83;;;;;;;;;;5052442;28;20416;-79
2023/07/16 07:59:08;;;;;;;3.70;1.17;;;;;;;;;;5052409;28;20408;-80
2023/07/16 08:01:35;;;;;;;2.83;0.90;;;;;;;;;;5052365;28;20416;-81
2023/07/16 08:04:01;;;;;;;2.83;0.80;;;;;;;;;;5054809;28;20223;-80
2023/07/16 08:06:27;;;;;;;5.00;1.13;;;;;;;;;;5055872;28;20415;-80
2023/07/16 08:08:53;;;;;;;2.73;0.57;;;;;;;;;;5038329;28;20607;-80
2023/07/16 08:11:19;;;;;;;4.10;1.10;;;;;;;;;;5056151;28;20178;-77
2023/07/16 08:13:45;;;;;;;2.43;0.90;;;;;;;;;;5056104;28;20178;-79
2023/07/16 08:16:11;;;;;;;5.50;1.90;;;;;;;;;;5055913;28;20674;-79
2023/07/16 08:18:37;;;;;;;3.33;1.30;;;;;;;;;;5055903;28;20224;-79
2023/07/16 08:21:03;;;;;;;5.97;1.53;;;;;;;;;;5055650;28;20208;-79
2023/07/16 08:23:29;;;;;;;4.40;0.97;;;;;;;;;;5055896;28;20201;-79
2023/07/16 08:25:54;;;;;;;2.30;0.90;;;;;;;;;;5055871;28;20485;-78
2023/07/16 08:28:20;;;;;;;2.37;0.80;;;;;;;;;;5055720;28;20220;-79
2023/07/16 08:30:47;;;;;;;3.10;1.17;;;;;;;;;;5055811;28;20259;-79
2023/07/16 08:33:14;;;;;;;2.30;0.70;;;;;;;;;;5055727;28;20166;-79
2023/07/16 08:35:40;;;;;;;4.83;0.83;;;;;;;;;;5055343;28;20467;-79
2023/07/16 08:38:09;;;;;;;2.20;0.80;;;;;;;;;;5055584;28;20404;-79
2023/07/16 08:40:35;;;;;;;3.57;1.30;;;;;;;;;;5055512;28;20411;-81
2023/07/16 08:43:02;;;;;;;3.73;1.80;;;;;;;;;;5055409;28;20404;-80
2023/07/16 08:45:28;;;;;;;3.60;1.03;;;;;;;;;;5055444;28;20486;-80
2023/07/16 08:47:55;;;;;;;2.67;0.90;;;;;;;;;;5055445;28;20498;-79
2023/07/16 08:50:22;;;;;;;4.53;1.20;;;;;;;;;;5037495;28;20848;-80
2023/07/16 08:52:48;;;;;;;3.33;1.37;;;;;;;;;;5054975;28;20465;-81
2023/07/16 08:55:14;;;;;;;3.80;1.10;;;;;;;;;;5055335;28;20546;-80
2023/07/16 08:57:40;;;;;;;3.80;1.10;;;;;;;;;;5055263;28;20180;-81
2023/07/16 09:00:07;;;;;;;4.37;1.90;;;;;;;;;;5055272;28;20404;-79
2023/07/16 09:02:33;;;;;;;3.67;1.90;;;;;;;;;;5055254;28;20420;-80
2023/07/16 09:04:59;;;;;;;2.30;1.50;;;;;;;;;;5055107;28;20411;-80
2023/07/16 09:07:25;;;;;;;2.57;1.10;;;;;;;;;;5054294;28;20436;-80
2023/07/16 09:09:58;;;;;;;1.83;1.00;;;;;;;;;;5054336;28;20181;-80
2023/07/16 09:12:24;;;;;;;5.60;1.53;;;;;;;;;;5028621;28;20182;-82
2023/07/16 09:14:50;;;;;;;3.10;1.43;;;;;;;;;;5048921;28;20872;-82
2023/07/16 09:17:21;;;;;;;3.40;1.37;;;;;;;;;;5053112;28;20505;-81
2023/07/16 09:19:47;;;;;;;3.80;1.80;;;;;;;;;;5053424;28;20217;-82
2023/07/16 09:22:13;;;;;;;3.77;1.67;;;;;;;;;;5052934;28;20501;-81
2023/07/16 09:24:39;;;;;;;3.03;1.60;;;;;;;;;;5052736;28;20253;-80
2023/07/16 09:27:05;;;;;;;2.30;1.37;;;;;;;;;;5035437;28;20185;-79
2023/07/16 09:29:31;;;;;;;3.87;1.63;;;;;;;;;;5053215;28;20177;-79
2023/07/16 09:31:58;;;;;;;2.37;1.77;;;;;;;;;;5052443;28;20428;-78
2023/07/16 09:34:24;;;;;;;3.83;1.97;;;;;;;;;;5051855;28;20208;-79
2023/07/16 09:36:50;;;;;;;5.00;2.07;;;;;;;;;;5052631;28;20428;-80
2023/07/16 09:39:20;;;;;;;4.27;1.57;;;;;;;;;;5053044;28;20420;-80
2023/07/16 09:41:49;;;;;;;3.33;1.70;;;;;;;;;;5052958;28;20423;-81
2023/07/16 09:44:16;;;;;;;3.00;1.27;;;;;;;;;;5034870;28;20412;-80
2023/07/16 09:46:42;;;;;;;4.33;2.10;;;;;;;;;;5052896;28;20503;-80
2023/07/16 09:49:08;;;;;;;3.03;1.57;;;;;;;;;;5019788;28;20496;-79
2023/07/16 09:51:35;;;;;;;3.43;1.37;;;;;;;;;;5052836;28;20428;-82
2023/07/16 09:54:02;;;;;;;3.60;1.57;;;;;;;;;;5052401;28;20923;-83
2023/07/16 09:56:32;;;;;;;4.20;1.93;;;;;;;;;;5052534;28;20456;-83
2023/07/16 09:58:58;;;;;;;3.03;1.90;;;;;;;;;;5052346;28;20465;-80
2023/07/16 10:01:25;;;;;;;3.63;2.40;;;;;;;;;;5034434;28;20463;-83
2023/07/16 10:03:51;;;;;;;4.70;1.97;;;;;;;;;;5051931;28;20852;-83
2023/07/16 10:06:18;;;;;;;4.40;2.40;;;;;;;;;;5052162;28;20765;-80
2023/07/16 10:08:49;;;;;;;3.40;1.87;;;;;;;;;;5052260;28;20474;-82
2023/07/16 10:11:18;;;;;;;2.83;1.70;;;;;;;;;;5050090;28;20417;-82
2023/07/16 10:13:50;;;;;;;4.53;1.90;;;;;;;;;;5052095;28;20411;-81
2023/07/16 10:16:23;;;;;;;2.63;2.27;;;;;;;;;;5048702;28;20471;-81
2023/07/16 10:18:55;;;;;;;4.00;2.23;;;;;;;;;;5052718;28;20463;-81
2023/07/16 10:21:25;;;;;;;5.20;2.03;;;;;;;;;;5052581;28;20896;-81
2023/07/16 10:23:59;;;;;;;3.47;2.00;;;;;;;;;;5051889;28;20428;-81
2023/07/16 10:26:29;;;;;;;4.97;2.30;;;;;;;;;;5052236;28;20419;-82
2023/07/16 10:28:55;;;;;;;4.17;2.40;;;;;;;;;;5050602;28;20416;-81
2023/07/16 10:31:25;;;;;;;3.67;2.37;;;;;;;;;;5052049;28;21292;-80
2023/07/16 10:34:01;;;;;;;6.83;2.30;;;;;;;;;;5051728;28;20185;-83
2023/07/16 10:36:27;;;;;;;3.67;2.30;;;;;;;;;;5034247;28;21003;-83
2023/07/16 10:39:02;;;;;;;3.63;2.30;;;;;;;;;;5052607;28;20419;-81
2023/07/16 10:41:28;;;;;;;3.67;1.83;;;;;;;;;;5052558;28;20252;-81
2023/07/16 10:43:54;;;;;;;2.57;2.23;;;;;;;;;;5052503;28;20419;-80
2023/07/16 10:46:21;;;;;;;3.43;2.03;;;;;;;;;;5052663;28;20408;-83
2023/07/16 10:48:47;;;;;;;3.90;1.93;;;;;;;;;;5052490;28;20184;-81
2023/07/16 10:51:16;;;;;;;3.90;1.53;;;;;;;;;;5052288;28;20960;-81
2023/07/16 10:53:43;;;;;;;2.67;1.27;;;;;;;;;;5052445;28;20420;-84
2023/07/16 10:56:09;;;;;;;3.30;2.07;;;;;;;;;;5052290;28;20470;-82
2023/07/16 10:58:37;;;;;;;4.90;2.30;;;;;;;;;;5052440;28;20408;-81
2023/07/16 11:01:03;;;;;;;5.40;2.70;;;;;;;;;;5052395;28;20185;-83
2023/07/16 11:03:31;;;;;;;4.13;1.73;;;;;;;;;;5052423;28;20892;-81
2023/07/16 11:05:57;;;;;;;6.17;2.60;;;;;;;;;;5049194;28;20920;-82
2023/07/16 11:08:24;;;;;;;4.47;2.00;;;;;;;;;;5051100;28;20561;-82
2023/07/16 11:10:54;;;;;;;3.33;2.17;;;;;;;;;;5046228;28;20174;-81
2023/07/16 11:13:20;;;;;;;3.30;2.10;;;;;;;;;;5051450;28;20408;-83
2023/07/16 11:15:46;;;;;;;3.90;2.00;;;;;;;;;;5052000;28;20490;-82
2023/07/16 11:18:12;;;;;;;4.77;2.27;;;;;;;;;;5051050;28;20451;-82
2023/07/16 11:20:38;;;;;;;2.40;1.60;;;;;;;;;;5026311;28;20193;-85
2023/07/16 11:23:04;;;;;;;6.13;1.87;;;;;;;;;;5031498;28;20180;-81
2023/07/16 11:25:30;;;;;;;6.20;3.10;;;;;;;;;;5048075;28;20657;-80
2023/07/16 11:27:56;;;;;;;2.83;1.93;;;;;;;;;;5049415;28;20423;-80
2023/07/16 11:30:27;;;;;;;2.43;1.40;;;;;;;;;;5051992;28;20216;-80
2023/07/16 11:32:53;;;;;;;3.47;1.70;;;;;;;;;;5044483;28;20201;-80
2023/07/16 11:35:20;;;;;;;4.60;1.40;;;;;;;;;;5051643;28;20562;-81
2023/07/16 11:37:46;;;;;;;3.33;2.00;;;;;;;;;;5053938;28;20424;-81
2023/07/16 11:40:16;;;;;;;4.13;1.90;;;;;;;;;;5042168;28;20923;-82
2023/07/16 11:42:42;;;;;;;3.17;1.37;;;;;;;;;;5052907;28;20428;-81
2023/07/16 11:45:18;;;;;;;7.03;2.20;;;;;;;;;;5056145;28;20511;-82
2023/07/16 11:47:44;;;;;;;2.43;1.20;;;;;;;;;;5055586;28;20456;-80
2023/07/16 11:50:10;;;;;;;3.97;2.10;;;;;;;;;;5056054;28;20451;-81
2023/07/16 11:52:36;;;;;;;4.90;2.50;;;;;;;;;;5055445;28;20481;-81
2023/07/16 11:55:05;;;;;;;4.00;2.30;;;;;;;;;;5040016;28;20213;-81
2023/07/16 11:57:31;;;;;;;3.70;2.10;;;;;;;;;;5053384;28;20181;-81
2023/07/16 11:59:57;;;;;;;2.77;1.70;;;;;;;;;;5055841;28;20404;-81
2023/07/16 12:02:25;;;;;;;4.60;1.93;;;;;;;;;;5037719;28;20185;-81
2023/07/16 12:04:54;;;;;;;6.20;1.60;;;;;;;;;;5055959;28;20173;-80
2023/07/16 12:07:33;;;;;;;5.43;1.83;;;;;;;;;;5055695;28;20423;-81
2023/07/16 12:09:59;;;;;;;3.60;2.00;;;;;;;;;;5038226;28;20426;-80
2023/07/16 12:12:25;;;;;;;4.03;2.37;;;;;;;;;;5053486;28;21139;-80
2023/07/16 12:14:50;;;;;;;3.40;2.00;;;;;;;;;;5055405;28;20517;-81
2023/07/16 12:17:16;;;;;;;3.03;2.13;;;;;;;;;;5054841;28;20217;-80
2023/07/16 12:19:43;;;;;;;5.03;1.70;;;;;;;;;;5055295;28;20180;-80
2023/07/16 12:22:09;;;;;;;2.60;2.00;;;;;;;;;;5051835;28;20623;-79
2023/07/16 12:24:35;;;;;;;2.70;1.97;;;;;;;;;;5055328;28;20419;-79
2023/07/16 12:27:01;;;;;;;2.97;2.50;;;;;;;;;;5055369;28;20503;-79
2023/07/16 12:29:27;;;;;;;3.93;1.50;;;;;;;;;;5055283;28;20580;-80
2023/07/16 12:31:53;;;;;;;5.53;2.43;;;;;;;;;;5055195;28;20420;-79
2023/07/16 12:34:19;;;;;;;4.90;2.43;;;;;;;;;;5055225;28;20469;-80
2023/07/16 12:36:45;;;;;;;3.43;1.83;;;;;;;;;;5054797;28;20255;-81
2023/07/16 12:39:11;;;;;;;3.80;1.60;;;;;;;;;;5055143;28;20174;-80
2023/07/16 12:41:37;;;;;;;4.20;1.73;;;;;;;;;;5054051;28;20427;-81
2023/07/16 12:44:03;;;;;;;2.97;1.40;;;;;;;;;;5054960;28;20184;-80
2023/07/16 12:46:29;;;;;;;2.53;1.20;;;;;;;;;;5034018;28;20412;-80
2023/07/16 12:48:55;;;;;;;3.20;1.97;;;;;;;;;;5043640;28;20978;-82
2023/07/16 12:51:21;;;;;;;3.27;1.77;;;;;;;;;;5054715;28;20165;-79
2023/07/16 12:53:47;;;;;;;2.70;1.97;;;;;;;;;;5054989;28;20174;-80
2023/07/16 12:56:13;;;;;;;5.73;1.90;;;;;;;;;;5054861;28;20213;-79
2023/07/16 12:58:38;;;;;;;2.70;1.33;;;;;;;;;;5054821;28;20419;-80
2023/07/16 13:01:04;;;;;;;5.90;2.17;;;;;;;;;;5054775;28;20280;-83
2023/07/16 13:03:30;;;;;;;3.20;1.80;;;;;;;;;;5054798;28;20170;-80
2023/07/16 13:05:56;;;;;;;2.30;1.57;;;;;;;;;;5054522;28;20172;-80
2023/07/16 13:08:22;;;;;;;3.83;1.60;;;;;;;;;;5054724;28;20196;-80
2023/07/16 13:10:48;;;;;;;2.73;2.03;;;;;;;;;;5054680;28;20264;-79
2023/07/16 13:13:14;;;;;;;3.93;2.10;;;;;;;;;;5054648;28;20491;-81
2023/07/16 13:15:43;;;;;;;2.63;1.40;;;;;;;;;;5036173;28;20209;-81
2023/07/16 13:18:13;;;;;;;1.93;1.50;;;;;;;;;;5054213;28;20225;-80
2023/07/16 13:20:39;;;;;;;2.97;1.90;;;;;;;;;;5054081;28;20417;-81
2023/07/16 13:23:05;;;;;;;6.27;1.83;;;;;;;;;;5054375;28;21011;-81
2023/07/16 13:25:31;;;;;;;3.37;1.40;;;;;;;;;;5054432;28;20413;-81
2023/07/16 13:27:57;;;;;;;5.53;2.07;;;;;;;;;;5054392;28;20413;-81
2023/07/16 13:30:23;;;;;;;3.93;1.30;;;;;;;;;;5054247;28;20771;-82
2023/07/16 13:32:49;;;;;;;3.20;1.50;;;;;;;;;;5054088;28;20441;-80
2023/07/16 13:35:15;;;;;;;3.40;1.13;;;;;;;;;;5053714;28;20467;-80
2023/07/16 13:37:42;;;;;;;2.97;1.07;;;;;;;;;;5054247;28;20188;-81
2023/07/16 13:40:08;;;;;;;3.60;1.30;;;;;;;;;;5054241;28;20463;-82
2023/07/16 13:42:34;;;;;;;4.13;1.13;;;;;;;;;;5053898;28;20943;-81
2023/07/16 13:45:00;;;;;;;2.87;1.50;;;;;;;;;;5054066;28;20444;-81
2023/07/16 13:47:26;;;;;;;8.03;1.73;;;;;;;;;;5054088;28;20792;-83
2023/07/16 13:49:52;;;;;;;3.20;1.40;;;;;;;;;;5053681;28;20705;-81
2023/07/16 13:52:18;;;;;;;1.67;0.73;;;;;;;;;;5053981;28;20186;-81
2023/07/16 13:54:44;;;;;;;1.80;0.70;;;;;;;;;;5053829;28;20793;-81
2023/07/16 13:57:10;;;;;;;2.20;1.27;;;;;;;;;;5053901;28;20466;-81
2023/07/16 13:59:36;;;;;;;4.70;0.97;;;;;;;;;;5053632;28;20404;-81
2023/07/16 14:02:02;;;;;;;4.20;1.20;;;;;;;;;;5053810;28;20260;-80
2023/07/16 14:04:28;;;;;;;2.00;1.20;;;;;;;;;;5053640;28;20170;-80
2023/07/16 14:06:55;;;;;;;3.23;1.33;;;;;;;;;;5053278;28;20589;-80
2023/07/16 14:09:21;;;;;;;3.93;1.37;;;;;;;;;;5053694;28;20408;-80
2023/07/16 14:11:47;;;;;;;2.43;1.00;;;;;;;;;;5035624;28;20424;-80
2023/07/16 14:14:17;;;;;;;3.60;1.97;;;;;;;;;;5041491;28;20540;-80
2023/07/16 14:16:43;;;;;;;3.00;1.13;;;;;;;;;;5053607;28;20423;-80
2023/07/16 14:19:09;;;;;;;2.67;1.13;;;;;;;;;;5052072;28;20487;-81
2023/07/16 14:21:35;;;;;;;5.17;0.97;;;;;;;;;;5053130;28;20542;-81
2023/07/16 14:24:01;;;;;;;2.83;1.50;;;;;;;;;;5052152;28;20545;-81
2023/07/16 14:26:27;;;;;;;4.10;1.33;;;;;;;;;;5053255;28;20449;-82
2023/07/16 14:28:52;;;;;;;3.17;1.70;;;;;;;;;;5053158;28;20229;-80
2023/07/16 14:31:19;;;;;;;2.53;1.30;;;;;;;;;;5052946;28;20232;-80
2023/07/16 14:33:45;;;;;;;4.87;1.77;;;;;;;;;;5032330;28;20420;-81
2023/07/16 14:36:10;;;;;;;2.60;1.63;;;;;;;;;;5047607;28;21032;-81
2023/07/16 14:38:36;;;;;;;6.30;2.50;;;;;;;;;;5033382;28;20216;-81